Time,TemperatureF,DewpointF,PressureIn,WindDirection,WindDirectionDegrees,WindSpeedMPH,WindSpeedGustMPH,Humidity,HourlyPrecipIn,Conditions,Clouds,dailyrainin,SoftwareType,DateUTC
2013-11-22 00:02:00,54.7,29.6,-100.00,North,-999,-999.0,-999.0,38,-99.99,,---,-99.99,VWS V14.01,2013-11-22 08:02:00,
2013-11-22 00:12:00,54.9,29.8,-100.00,North,-999,-999.0,-999.0,38,-99.99,,---,-99.99,VWS V14.01,2013-11-22 08:12:00,
2013-11-22 00:17:00,54.9,29.8,-100.00,North,-999,-999.0,-999.0,38,-99.99,,---,-99.99,VWS V14.01,2013-11-22 08:17:00,
2013-11-22 00:22:00,54.9,29.8,-100.00,North,-999,-999.0,-999.0,38,-99.99,,---,-99.99,VWS V14.01,2013-11-22 08:22:00,
2013-11-22 00:27:00,54.9,29.1,-100.00,North,-999,-999.0,-999.0,37,-99.99,,---,-99.99,VWS V14.01,2013-11-22 08:27:00,
2013-11-22 00:32:00,54.9,29.1,-100.00,North,-999,-999.0,-999.0,37,-99.99,,---,-99.99,VWS V14.01,2013-11-22 08:32:00,
2013-11-22 00:37:00,54.9,29.1,-100.00,North,-999,-999.0,-999.0,37,-99.99,,---,-99.99,VWS V14.01,2013-11-22 08:37:00,
2013-11-22 00:42:00,54.5,28.8,-100.00,North,-999,-999.0,-999.0,37,-99.99,,---,-99.99,VWS V14.01,2013-11-22 08:42:00,
2013-11-22 00:47:00,54.5,28.8,-100.00,North,-999,-999.0,-999.0,37,-99.99,,---,-99.99,VWS V14.01,2013-11-22 08:47:00,
2013-11-22 00:52:00,54.5,28.8,-100.00,North,-999,-999.0,-999.0,37,-99.99,,---,-99.99,VWS V14.01,2013-11-22 08:52:00,
2013-11-22 00:57:00,54.5,28.8,-100.00,North,-999,-999.0,-999.0,37,-99.99,,---,-99.99,VWS V14.01,2013-11-22 08:57:00,
2013-11-22 01:02:00,54.5,28.8,-100.00,North,-999,-999.0,-999.0,37,-99.99,,---,-99.99,VWS V14.01,2013-11-22 09:02:00,
2013-11-22 01:11:00,54.1,28.5,-100.00,North,-999,-999.0,-999.0,37,-99.99,,---,-99.99,VWS V14.01,2013-11-22 09:11:00,
2013-11-22 01:16:00,54.3,28.0,-100.00,North,-999,-999.0,-999.0,36,-99.99,,---,-99.99,VWS V14.01,2013-11-22 09:16:00,
2013-11-22 01:21:00,54.3,28.0,-100.00,North,-999,-999.0,-999.0,36,-99.99,,---,-99.99,VWS V14.01,2013-11-22 09:21:00,
2013-11-22 01:26:00,54.3,28.0,-100.00,North,-999,-999.0,-999.0,36,-99.99,,---,-99.99,VWS V14.01,2013-11-22 09:26:00,
2013-11-22 01:31:00,54.3,28.0,-100.00,North,-999,-999.0,-999.0,36,-99.99,,---,-99.99,VWS V14.01,2013-11-22 09:31:00,
2013-11-22 01:36:00,54.3,28.0,-100.00,North,-999,-999.0,-999.0,36,-99.99,,---,-99.99,VWS V14.01,2013-11-22 09:36:00,
2013-11-22 01:41:00,54.3,28.0,-100.00,North,-999,-999.0,-999.0,36,-99.99,,---,-99.99,VWS V14.01,2013-11-22 09:41:00,
2013-11-22 01:46:00,54.1,27.8,-100.00,North,-999,-999.0,-999.0,36,-99.99,,---,-99.99,VWS V14.01,2013-11-22 09:46:00,
2013-11-22 01:51:00,54.1,27.8,-100.00,North,-999,-999.0,-999.0,36,-99.99,,---,-99.99,VWS V14.01,2013-11-22 09:51:00,
2013-11-22 01:57:00,54.0,27.6,-100.00,North,-999,-999.0,-999.0,36,-99.99,,---,-99.99,VWS V14.01,2013-11-22 09:57:00,
2013-11-22 02:02:00,54.0,27.6,-100.00,North,-999,-999.0,-999.0,36,-99.99,,---,-99.99,VWS V14.01,2013-11-22 10:02:00,
2013-11-22 02:24:00,54.0,27.6,-100.00,North,-999,-999.0,-999.0,36,-99.99,,---,-99.99,VWS V14.01,2013-11-22 10:24:00,
2013-11-22 02:29:00,54.0,27.6,-100.00,North,-999,-999.0,-999.0,36,-99.99,,---,-99.99,VWS V14.01,2013-11-22 10:29:00,
2013-11-22 02:34:00,54.0,27.6,-100.00,North,-999,-999.0,-999.0,36,-99.99,,---,-99.99,VWS V14.01,2013-11-22 10:34:00,
2013-11-22 02:39:00,54.0,27.6,-100.00,North,-999,-999.0,-999.0,36,-99.99,,---,-99.99,VWS V14.01,2013-11-22 10:39:00,
2013-11-22 02:44:00,54.0,27.6,-100.00,North,-999,-999.0,-999.0,36,-99.99,,---,-99.99,VWS V14.01,2013-11-22 10:44:00,
2013-11-22 02:49:00,53.8,27.5,-100.00,North,-999,-999.0,-999.0,36,-99.99,,---,-99.99,VWS V14.01,2013-11-22 10:49:00,
2013-11-22 02:54:00,53.8,27.5,-100.00,North,-999,-999.0,-999.0,36,-99.99,,---,-99.99,VWS V14.01,2013-11-22 10:54:00,
2013-11-22 02:59:00,53.8,27.5,-100.00,North,-999,-999.0,-999.0,36,-99.99,,---,-99.99,VWS V14.01,2013-11-22 10:59:00,
2013-11-22 03:04:00,53.8,27.5,-100.00,North,-999,-999.0,-999.0,36,-99.99,,---,-99.99,VWS V14.01,2013-11-22 11:04:00,
2013-11-22 03:09:00,53.6,27.3,-100.00,North,-999,-999.0,-999.0,36,-99.99,,---,-99.99,VWS V14.01,2013-11-22 11:09:00,
2013-11-22 03:14:00,53.6,27.3,-100.00,North,-999,-999.0,-999.0,36,-99.99,,---,-99.99,VWS V14.01,2013-11-22 11:14:00,
2013-11-22 03:19:00,53.6,27.3,-100.00,North,-999,-999.0,-999.0,36,-99.99,,---,-99.99,VWS V14.01,2013-11-22 11:19:00,
2013-11-22 03:24:00,53.4,27.1,-100.00,North,-999,-999.0,-999.0,36,-99.99,,---,-99.99,VWS V14.01,2013-11-22 11:24:00,
2013-11-22 03:29:00,53.6,27.3,-100.00,North,-999,-999.0,-999.0,36,-99.99,,---,-99.99,VWS V14.01,2013-11-22 11:29:00,
2013-11-22 03:34:00,53.6,27.3,-100.00,North,-999,-999.0,-999.0,36,-99.99,,---,-99.99,VWS V14.01,2013-11-22 11:34:00,
2013-11-22 03:39:00,53.4,27.1,-100.00,North,-999,-999.0,-999.0,36,-99.99,,---,-99.99,VWS V14.01,2013-11-22 11:39:00,
2013-11-22 03:44:00,53.6,27.3,-100.00,North,-999,-999.0,-999.0,36,-99.99,,---,-99.99,VWS V14.01,2013-11-22 11:44:00,
2013-11-22 03:49:00,53.4,27.1,-100.00,North,-999,-999.0,-999.0,36,-99.99,,---,-99.99,VWS V14.01,2013-11-22 11:49:00,
2013-11-22 03:54:00,53.4,27.1,-100.00,North,-999,-999.0,-999.0,36,-99.99,,---,-99.99,VWS V14.01,2013-11-22 11:54:00,
2013-11-22 03:59:00,53.4,27.1,-100.00,North,-999,-999.0,-999.0,36,-99.99,,---,-99.99,VWS V14.01,2013-11-22 11:59:00,
2013-11-22 04:04:00,53.2,27.0,-100.00,North,-999,-999.0,-999.0,36,-99.99,,---,-99.99,VWS V14.01,2013-11-22 12:04:00,
2013-11-22 04:09:00,53.2,27.0,-100.00,North,-999,-999.0,-999.0,36,-99.99,,---,-99.99,VWS V14.01,2013-11-22 12:09:00,
2013-11-22 04:14:00,53.2,27.0,-100.00,North,-999,-999.0,-999.0,36,-99.99,,---,-99.99,VWS V14.01,2013-11-22 12:14:00,
2013-11-22 04:19:00,53.1,26.8,-100.00,North,-999,-999.0,-999.0,36,-99.99,,---,-99.99,VWS V14.01,2013-11-22 12:19:00,
2013-11-22 04:24:00,53.1,26.8,-100.00,North,-999,-999.0,-999.0,36,-99.99,,---,-99.99,VWS V14.01,2013-11-22 12:24:00,
2013-11-22 04:29:00,53.1,26.8,-100.00,North,-999,-999.0,-999.0,36,-99.99,,---,-99.99,VWS V14.01,2013-11-22 12:29:00,
2013-11-22 04:34:00,53.1,26.8,-100.00,North,-999,-999.0,-999.0,36,-99.99,,---,-99.99,VWS V14.01,2013-11-22 12:34:00,
2013-11-22 04:39:00,53.1,26.8,-100.00,North,-999,-999.0,-999.0,36,-99.99,,---,-99.99,VWS V14.01,2013-11-22 12:39:00,
2013-11-22 04:44:00,53.2,27.0,-100.00,North,-999,-999.0,-999.0,36,-99.99,,---,-99.99,VWS V14.01,2013-11-22 12:44:00,
2013-11-22 04:49:00,53.2,27.0,-100.00,North,-999,-999.0,-999.0,36,-99.99,,---,-99.99,VWS V14.01,2013-11-22 12:49:00,
2013-11-22 04:54:00,53.2,27.0,-100.00,North,-999,-999.0,-999.0,36,-99.99,,---,-99.99,VWS V14.01,2013-11-22 12:54:00,
2013-11-22 04:59:00,53.1,26.8,-100.00,North,-999,-999.0,-999.0,36,-99.99,,---,-99.99,VWS V14.01,2013-11-22 12:59:00,
2013-11-22 05:04:00,53.1,26.8,-100.00,North,-999,-999.0,-999.0,36,-99.99,,---,-99.99,VWS V14.01,2013-11-22 13:04:00,
2013-11-22 05:09:00,53.1,26.8,-100.00,North,-999,-999.0,-999.0,36,-99.99,,---,-99.99,VWS V14.01,2013-11-22 13:09:00,
2013-11-22 05:14:00,53.1,26.8,-100.00,North,-999,-999.0,-999.0,36,-99.99,,---,-99.99,VWS V14.01,2013-11-22 13:14:00,
2013-11-22 05:19:00,52.9,26.7,-100.00,North,-999,-999.0,-999.0,36,-99.99,,---,-99.99,VWS V14.01,2013-11-22 13:19:00,
2013-11-22 05:24:00,52.9,26.7,-100.00,North,-999,-999.0,-999.0,36,-99.99,,---,-99.99,VWS V14.01,2013-11-22 13:24:00,
2013-11-22 05:29:00,52.9,26.7,-100.00,North,-999,-999.0,-999.0,36,-99.99,,---,-99.99,VWS V14.01,2013-11-22 13:29:00,
2013-11-22 05:34:00,52.9,26.7,-100.00,North,-999,-999.0,-999.0,36,-99.99,,---,-99.99,VWS V14.01,2013-11-22 13:34:00,
2013-11-22 05:39:00,52.7,26.5,-100.00,North,-999,-999.0,-999.0,36,-99.99,,---,-99.99,VWS V14.01,2013-11-22 13:39:00,
2013-11-22 05:44:00,52.7,26.5,-100.00,North,-999,-999.0,-999.0,36,-99.99,,---,-99.99,VWS V14.01,2013-11-22 13:44:00,
2013-11-22 05:49:00,52.5,26.4,-100.00,North,-999,-999.0,-999.0,36,-99.99,,---,-99.99,VWS V14.01,2013-11-22 13:49:00,
2013-11-22 05:54:00,52.3,26.2,-100.00,North,-999,-999.0,-999.0,36,-99.99,,---,-99.99,VWS V14.01,2013-11-22 13:54:00,
2013-11-22 05:59:00,52.2,26.0,-100.00,North,-999,-999.0,-999.0,36,-99.99,,---,-99.99,VWS V14.01,2013-11-22 13:59:00,
2013-11-22 06:04:00,52.0,25.9,-100.00,North,-999,-999.0,-999.0,36,-99.99,,---,-99.99,VWS V14.01,2013-11-22 14:04:00,
2013-11-22 06:09:00,52.2,26.0,-100.00,North,-999,-999.0,-999.0,36,-99.99,,---,-99.99,VWS V14.01,2013-11-22 14:09:00,
2013-11-22 06:14:00,52.0,25.9,-100.00,North,-999,-999.0,-999.0,36,-99.99,,---,-99.99,VWS V14.01,2013-11-22 14:14:00,
2013-11-22 06:19:00,51.6,25.6,-100.00,North,-999,-999.0,-999.0,36,-99.99,,---,-99.99,VWS V14.01,2013-11-22 14:19:00,
2013-11-22 06:24:00,51.4,25.4,-100.00,North,-999,-999.0,-999.0,36,-99.99,,---,-99.99,VWS V14.01,2013-11-22 14:24:00,
2013-11-22 06:29:00,51.3,25.2,-100.00,North,-999,-999.0,-999.0,36,-99.99,,---,-99.99,VWS V14.01,2013-11-22 14:29:00,
2013-11-22 06:34:00,51.1,25.1,-100.00,North,-999,-999.0,-999.0,36,-99.99,,---,-99.99,VWS V14.01,2013-11-22 14:34:00,
2013-11-22 06:39:00,50.9,24.9,-100.00,North,-999,-999.0,-999.0,36,-99.99,,---,-99.99,VWS V14.01,2013-11-22 14:39:00,
2013-11-22 06:44:00,50.9,24.9,-100.00,North,-999,-999.0,-999.0,36,-99.99,,---,-99.99,VWS V14.01,2013-11-22 14:44:00,
2013-11-22 06:49:00,50.7,24.8,-100.00,North,-999,-999.0,-999.0,36,-99.99,,---,-99.99,VWS V14.01,2013-11-22 14:49:00,
2013-11-22 06:54:00,50.5,24.6,-100.00,North,-999,-999.0,-999.0,36,-99.99,,---,-99.99,VWS V14.01,2013-11-22 14:54:00,
2013-11-22 06:59:00,50.5,24.6,-100.00,North,-999,-999.0,-999.0,36,-99.99,,---,-99.99,VWS V14.01,2013-11-22 14:59:00,
2013-11-22 07:04:00,50.4,24.4,-100.00,North,-999,-999.0,-999.0,36,-99.99,,---,-99.99,VWS V14.01,2013-11-22 15:04:00,
2013-11-22 07:09:00,50.4,25.1,-100.00,North,-999,-999.0,-999.0,37,-99.99,,---,-99.99,VWS V14.01,2013-11-22 15:09:00,
2013-11-22 07:14:00,50.2,24.9,-100.00,North,-999,-999.0,-999.0,37,-99.99,,---,-99.99,VWS V14.01,2013-11-22 15:14:00,
2013-11-22 07:19:00,50.2,24.9,-100.00,North,-999,-999.0,-999.0,37,-99.99,,---,-99.99,VWS V14.01,2013-11-22 15:19:00,
2013-11-22 07:24:00,50.0,24.8,-100.00,North,-999,-999.0,-999.0,37,-99.99,,---,-99.99,VWS V14.01,2013-11-22 15:24:00,
2013-11-22 07:29:00,50.2,24.9,-100.00,North,-999,-999.0,-999.0,37,-99.99,,---,-99.99,VWS V14.01,2013-11-22 15:29:00,
2013-11-22 07:34:00,50.2,24.9,-100.00,North,-999,-999.0,-999.0,37,-99.99,,---,-99.99,VWS V14.01,2013-11-22 15:34:00,
2013-11-22 07:39:00,50.2,24.9,-100.00,North,-999,-999.0,-999.0,37,-99.99,,---,-99.99,VWS V14.01,2013-11-22 15:39:00,
2013-11-22 07:44:00,50.4,25.1,-100.00,North,-999,-999.0,-999.0,37,-99.99,,---,-99.99,VWS V14.01,2013-11-22 15:44:00,
2013-11-22 07:49:00,50.5,25.2,-100.00,North,-999,-999.0,-999.0,37,-99.99,,---,-99.99,VWS V14.01,2013-11-22 15:49:00,
2013-11-22 07:54:00,50.7,25.4,-100.00,North,-999,-999.0,-999.0,37,-99.99,,---,-99.99,VWS V14.01,2013-11-22 15:54:00,
2013-11-22 07:59:00,50.9,25.6,-100.00,North,-999,-999.0,-999.0,37,-99.99,,---,-99.99,VWS V14.01,2013-11-22 15:59:00,
2013-11-22 08:04:00,50.9,25.6,-100.00,North,-999,-999.0,-999.0,37,-99.99,,---,-99.99,VWS V14.01,2013-11-22 16:04:00,
2013-11-22 08:11:00,51.3,25.9,-100.00,North,-999,-999.0,-999.0,37,-99.99,,---,-99.99,VWS V14.01,2013-11-22 16:11:00,
2013-11-22 08:16:00,51.6,26.2,-100.00,North,-999,-999.0,-999.0,37,-99.99,,---,-99.99,VWS V14.01,2013-11-22 16:16:00,
2013-11-22 08:21:00,52.0,25.9,-100.00,North,-999,-999.0,-999.0,36,-99.99,,---,-99.99,VWS V14.01,2013-11-22 16:21:00,
2013-11-22 08:26:00,52.5,26.4,-100.00,North,-999,-999.0,-999.0,36,-99.99,,---,-99.99,VWS V14.01,2013-11-22 16:26:00,
2013-11-22 08:31:00,53.1,27.5,-100.00,North,-999,-999.0,-999.0,37,-99.99,,---,-99.99,VWS V14.01,2013-11-22 16:31:00,
2013-11-22 08:36:00,53.4,27.8,-100.00,North,-999,-999.0,-999.0,37,-99.99,,---,-99.99,VWS V14.01,2013-11-22 16:36:00,
2013-11-22 08:41:00,54.0,27.6,-100.00,North,-999,-999.0,-999.0,36,-99.99,,---,-99.99,VWS V14.01,2013-11-22 16:41:00,
2013-11-22 08:46:00,54.7,28.3,-100.00,North,-999,-999.0,-999.0,36,-99.99,,---,-99.99,VWS V14.01,2013-11-22 16:46:00,
2013-11-22 08:51:00,55.2,28.8,-100.00,North,-999,-999.0,-999.0,36,-99.99,,---,-99.99,VWS V14.01,2013-11-22 16:51:00,
2013-11-22 08:56:00,55.9,29.4,-100.00,North,-999,-999.0,-999.0,36,-99.99,,---,-99.99,VWS V14.01,2013-11-22 16:56:00,
2013-11-22 09:01:00,56.5,29.9,-100.00,North,-999,-999.0,-999.0,36,-99.99,,---,-99.99,VWS V14.01,2013-11-22 17:01:00,
2013-11-22 09:06:00,56.8,29.5,-100.00,North,-999,-999.0,-999.0,35,-99.99,,---,-99.99,VWS V14.01,2013-11-22 17:06:00,
2013-11-22 09:11:00,57.2,29.8,-100.00,North,-999,-999.0,-999.0,35,-99.99,,---,-99.99,VWS V14.01,2013-11-22 17:11:00,
2013-11-22 09:16:00,57.4,30.0,-100.00,North,-999,-999.0,-999.0,35,-99.99,,---,-99.99,VWS V14.01,2013-11-22 17:16:00,
2013-11-22 09:21:00,57.4,30.0,-100.00,North,-999,-999.0,-999.0,35,-99.99,,---,-99.99,VWS V14.01,2013-11-22 17:21:00,
2013-11-22 09:26:00,57.6,30.1,-100.00,North,-999,-999.0,-999.0,35,-99.99,,---,-99.99,VWS V14.01,2013-11-22 17:26:00,
2013-11-22 09:31:00,57.9,30.5,-100.00,North,-999,-999.0,-999.0,35,-99.99,,---,-99.99,VWS V14.01,2013-11-22 17:31:00,
2013-11-22 09:36:00,58.1,30.6,-100.00,North,-999,-999.0,-999.0,35,-99.99,,---,-99.99,VWS V14.01,2013-11-22 17:36:00,
2013-11-22 09:41:00,58.1,30.6,-100.00,North,-999,-999.0,-999.0,35,-99.99,,---,-99.99,VWS V14.01,2013-11-22 17:41:00,
2013-11-22 09:46:00,58.3,30.8,-100.00,North,-999,-999.0,-999.0,35,-99.99,,---,-99.99,VWS V14.01,2013-11-22 17:46:00,
2013-11-22 09:51:00,58.5,30.9,-100.00,North,-999,-999.0,-999.0,35,-99.99,,---,-99.99,VWS V14.01,2013-11-22 17:51:00,
2013-11-22 09:56:00,58.6,31.1,-100.00,North,-999,-999.0,-999.0,35,-99.99,,---,-99.99,VWS V14.01,2013-11-22 17:56:00,
2013-11-22 10:01:00,58.8,31.2,-100.00,North,-999,-999.0,-999.0,35,-99.99,,---,-99.99,VWS V14.01,2013-11-22 18:01:00,
2013-11-22 10:06:00,59.2,30.9,-100.00,North,-999,-999.0,-999.0,34,-99.99,,---,-99.99,VWS V14.01,2013-11-22 18:06:00,
2013-11-22 10:11:00,59.4,31.0,-100.00,North,-999,-999.0,-999.0,34,-99.99,,---,-99.99,VWS V14.01,2013-11-22 18:11:00,
2013-11-22 10:18:00,59.7,31.3,-100.00,North,-999,-999.0,-999.0,34,-99.99,,---,-99.99,VWS V14.01,2013-11-22 18:18:00,
2013-11-22 10:24:00,60.3,31.8,-100.00,North,-999,-999.0,-999.0,34,-99.99,,---,-99.99,VWS V14.01,2013-11-22 18:24:00,
2013-11-22 10:30:00,60.6,32.1,-100.00,North,-999,-999.0,-999.0,34,-99.99,,---,-99.99,VWS V14.01,2013-11-22 18:30:00,
2013-11-22 10:35:00,61.0,32.4,-100.00,North,-999,-999.0,-999.0,34,-99.99,,---,-99.99,VWS V14.01,2013-11-22 18:35:00,
2013-11-22 10:41:00,61.5,32.9,-100.00,North,-999,-999.0,-999.0,34,-99.99,,---,-99.99,VWS V14.01,2013-11-22 18:41:00,
2013-11-22 10:46:00,62.1,33.4,-100.00,North,-999,-999.0,-999.0,34,-99.99,,---,-99.99,VWS V14.01,2013-11-22 18:46:00,
2013-11-22 10:51:00,62.4,33.7,-100.00,North,-999,-999.0,-999.0,34,-99.99,,---,-99.99,VWS V14.01,2013-11-22 18:51:00,
2013-11-22 10:56:00,62.6,33.1,-100.00,North,-999,-999.0,-999.0,33,-99.99,,---,-99.99,VWS V14.01,2013-11-22 18:56:00,
2013-11-22 11:01:00,63.0,33.4,-100.00,North,-999,-999.0,-999.0,33,-99.99,,---,-99.99,VWS V14.01,2013-11-22 19:01:00,
2013-11-22 11:06:00,63.1,33.6,-100.00,North,-999,-999.0,-999.0,33,-99.99,,---,-99.99,VWS V14.01,2013-11-22 19:06:00,
2013-11-22 11:11:00,63.3,33.8,-100.00,North,-999,-999.0,-999.0,33,-99.99,,---,-99.99,VWS V14.01,2013-11-22 19:11:00,
2013-11-22 11:17:00,63.5,33.9,-100.00,North,-999,-999.0,-999.0,33,-99.99,,---,-99.99,VWS V14.01,2013-11-22 19:17:00,
2013-11-22 11:22:00,63.5,33.9,-100.00,North,-999,-999.0,-999.0,33,-99.99,,---,-99.99,VWS V14.01,2013-11-22 19:22:00,
2013-11-22 11:27:00,63.5,33.9,-100.00,North,-999,-999.0,-999.0,33,-99.99,,---,-99.99,VWS V14.01,2013-11-22 19:27:00,
2013-11-22 11:32:00,63.7,34.1,-100.00,North,-999,-999.0,-999.0,33,-99.99,,---,-99.99,VWS V14.01,2013-11-22 19:32:00,
2013-11-22 11:37:00,63.9,34.2,-100.00,North,-999,-999.0,-999.0,33,-99.99,,---,-99.99,VWS V14.01,2013-11-22 19:37:00,
2013-11-22 11:42:00,64.0,33.6,-100.00,North,-999,-999.0,-999.0,32,-99.99,,---,-99.99,VWS V14.01,2013-11-22 19:42:00,
2013-11-22 11:47:00,64.2,33.8,-100.00,North,-999,-999.0,-999.0,32,-99.99,,---,-99.99,VWS V14.01,2013-11-22 19:47:00,
2013-11-22 11:52:00,64.4,33.1,-100.00,North,-999,-999.0,-999.0,31,-99.99,,---,-99.99,VWS V14.01,2013-11-22 19:52:00,
2013-11-22 11:57:00,64.4,33.1,-100.00,North,-999,-999.0,-999.0,31,-99.99,,---,-99.99,VWS V14.01,2013-11-22 19:57:00,
2013-11-22 12:02:00,64.4,33.1,-100.00,North,-999,-999.0,-999.0,31,-99.99,,---,-99.99,VWS V14.01,2013-11-22 20:02:00,
2013-11-22 12:07:00,64.6,32.5,-100.00,North,-999,-999.0,-999.0,30,-99.99,,---,-99.99,VWS V14.01,2013-11-22 20:07:00,
2013-11-22 12:12:00,64.8,32.6,-100.00,North,-999,-999.0,-999.0,30,-99.99,,---,-99.99,VWS V14.01,2013-11-22 20:12:00,
2013-11-22 12:17:00,64.8,32.6,-100.00,North,-999,-999.0,-999.0,30,-99.99,,---,-99.99,VWS V14.01,2013-11-22 20:17:00,
2013-11-22 12:22:00,64.9,32.8,-100.00,North,-999,-999.0,-999.0,30,-99.99,,---,-99.99,VWS V14.01,2013-11-22 20:22:00,
2013-11-22 12:27:00,64.9,32.8,-100.00,North,-999,-999.0,-999.0,30,-99.99,,---,-99.99,VWS V14.01,2013-11-22 20:27:00,
2013-11-22 12:32:00,65.1,32.9,-100.00,North,-999,-999.0,-999.0,30,-99.99,,---,-99.99,VWS V14.01,2013-11-22 20:32:00,
2013-11-22 12:37:00,65.1,32.9,-100.00,North,-999,-999.0,-999.0,30,-99.99,,---,-99.99,VWS V14.01,2013-11-22 20:37:00,
2013-11-22 12:42:00,65.1,32.9,-100.00,North,-999,-999.0,-999.0,30,-99.99,,---,-99.99,VWS V14.01,2013-11-22 20:42:00,
2013-11-22 12:47:00,65.1,32.9,-100.00,North,-999,-999.0,-999.0,30,-99.99,,---,-99.99,VWS V14.01,2013-11-22 20:47:00,
2013-11-22 12:52:00,65.5,33.3,-100.00,North,-999,-999.0,-999.0,30,-99.99,,---,-99.99,VWS V14.01,2013-11-22 20:52:00,
2013-11-22 12:57:00,65.5,33.3,-100.00,North,-999,-999.0,-999.0,30,-99.99,,---,-99.99,VWS V14.01,2013-11-22 20:57:00,
2013-11-22 13:02:00,65.7,33.4,-100.00,North,-999,-999.0,-999.0,30,-99.99,,---,-99.99,VWS V14.01,2013-11-22 21:02:00,
2013-11-22 13:07:00,65.7,33.4,-100.00,North,-999,-999.0,-999.0,30,-99.99,,---,-99.99,VWS V14.01,2013-11-22 21:07:00,
2013-11-22 13:12:00,65.8,32.7,-100.00,North,-999,-999.0,-999.0,29,-99.99,,---,-99.99,VWS V14.01,2013-11-22 21:12:00,
2013-11-22 13:17:00,65.8,33.6,-100.00,North,-999,-999.0,-999.0,30,-99.99,,---,-99.99,VWS V14.01,2013-11-22 21:17:00,
2013-11-22 13:22:00,66.0,32.9,-100.00,North,-999,-999.0,-999.0,29,-99.99,,---,-99.99,VWS V14.01,2013-11-22 21:22:00,
2013-11-22 13:27:00,66.2,33.0,-100.00,North,-999,-999.0,-999.0,29,-99.99,,---,-99.99,VWS V14.01,2013-11-22 21:27:00,
2013-11-22 13:32:00,66.2,33.0,-100.00,North,-999,-999.0,-999.0,29,-99.99,,---,-99.99,VWS V14.01,2013-11-22 21:32:00,
2013-11-22 13:37:00,66.4,33.2,-100.00,North,-999,-999.0,-999.0,29,-99.99,,---,-99.99,VWS V14.01,2013-11-22 21:37:00,
2013-11-22 13:42:00,66.4,33.2,-100.00,North,-999,-999.0,-999.0,29,-99.99,,---,-99.99,VWS V14.01,2013-11-22 21:42:00,
2013-11-22 13:47:00,66.4,33.2,-100.00,North,-999,-999.0,-999.0,29,-99.99,,---,-99.99,VWS V14.01,2013-11-22 21:47:00,
2013-11-22 13:52:00,66.6,33.3,-100.00,North,-999,-999.0,-999.0,29,-99.99,,---,-99.99,VWS V14.01,2013-11-22 21:52:00,
2013-11-22 13:57:00,66.6,32.5,-100.00,North,-999,-999.0,-999.0,28,-99.99,,---,-99.99,VWS V14.01,2013-11-22 21:57:00,
2013-11-22 14:02:00,66.6,33.3,-100.00,North,-999,-999.0,-999.0,29,-99.99,,---,-99.99,VWS V14.01,2013-11-22 22:02:00,
2013-11-22 14:12:00,66.7,32.6,-100.00,North,-999,-999.0,-999.0,28,-99.99,,---,-99.99,VWS V14.01,2013-11-22 22:12:00,
2013-11-22 14:17:00,66.7,32.6,-100.00,North,-999,-999.0,-999.0,28,-99.99,,---,-99.99,VWS V14.01,2013-11-22 22:17:00,
2013-11-22 14:22:00,66.7,32.6,-100.00,North,-999,-999.0,-999.0,28,-99.99,,---,-99.99,VWS V14.01,2013-11-22 22:22:00,
2013-11-22 14:27:00,66.7,32.6,-100.00,North,-999,-999.0,-999.0,28,-99.99,,---,-99.99,VWS V14.01,2013-11-22 22:27:00,
2013-11-22 14:32:00,66.7,32.6,-100.00,North,-999,-999.0,-999.0,28,-99.99,,---,-99.99,VWS V14.01,2013-11-22 22:32:00,
2013-11-22 14:37:00,66.7,32.6,-100.00,North,-999,-999.0,-999.0,28,-99.99,,---,-99.99,VWS V14.01,2013-11-22 22:37:00,
2013-11-22 14:42:00,66.7,32.6,-100.00,North,-999,-999.0,-999.0,28,-99.99,,---,-99.99,VWS V14.01,2013-11-22 22:42:00,
2013-11-22 14:47:00,66.7,32.6,-100.00,North,-999,-999.0,-999.0,28,-99.99,,---,-99.99,VWS V14.01,2013-11-22 22:47:00,
2013-11-22 14:52:00,66.7,32.6,-100.00,North,-999,-999.0,-999.0,28,-99.99,,---,-99.99,VWS V14.01,2013-11-22 22:52:00,
2013-11-22 14:57:00,66.9,32.8,-100.00,North,-999,-999.0,-999.0,28,-99.99,,---,-99.99,VWS V14.01,2013-11-22 22:57:00,
2013-11-22 15:02:00,66.9,32.8,-100.00,North,-999,-999.0,-999.0,28,-99.99,,---,-99.99,VWS V14.01,2013-11-22 23:02:00,
2013-11-22 15:07:00,66.9,31.9,-100.00,North,-999,-999.0,-999.0,27,-99.99,,---,-99.99,VWS V14.01,2013-11-22 23:07:00,
2013-11-22 15:12:00,66.9,31.9,-100.00,North,-999,-999.0,-999.0,27,-99.99,,---,-99.99,VWS V14.01,2013-11-22 23:12:00,
2013-11-22 15:17:00,66.9,31.9,-100.00,North,-999,-999.0,-999.0,27,-99.99,,---,-99.99,VWS V14.01,2013-11-22 23:17:00,
2013-11-22 15:22:00,66.9,31.9,-100.00,North,-999,-999.0,-999.0,27,-99.99,,---,-99.99,VWS V14.01,2013-11-22 23:22:00,
2013-11-22 15:27:00,66.9,31.9,-100.00,North,-999,-999.0,-999.0,27,-99.99,,---,-99.99,VWS V14.01,2013-11-22 23:27:00,
2013-11-22 15:32:00,66.7,31.7,-100.00,North,-999,-999.0,-999.0,27,-99.99,,---,-99.99,VWS V14.01,2013-11-22 23:32:00,
2013-11-22 15:37:00,66.7,31.7,-100.00,North,-999,-999.0,-999.0,27,-99.99,,---,-99.99,VWS V14.01,2013-11-22 23:37:00,
2013-11-22 15:42:00,66.7,31.7,-100.00,North,-999,-999.0,-999.0,27,-99.99,,---,-99.99,VWS V14.01,2013-11-22 23:42:00,
2013-11-22 15:47:00,66.7,31.7,-100.00,North,-999,-999.0,-999.0,27,-99.99,,---,-99.99,VWS V14.01,2013-11-22 23:47:00,
2013-11-22 15:52:00,66.7,31.7,-100.00,North,-999,-999.0,-999.0,27,-99.99,,---,-99.99,VWS V14.01,2013-11-22 23:52:00,
2013-11-22 15:57:00,66.7,31.7,-100.00,North,-999,-999.0,-999.0,27,-99.99,,---,-99.99,VWS V14.01,2013-11-22 23:57:00,
2013-11-22 16:02:00,66.7,31.7,-100.00,North,-999,-999.0,-999.0,27,-99.99,,---,-99.99,VWS V14.01,2013-11-23 00:02:00,
2013-11-22 16:07:00,66.6,31.6,-100.00,North,-999,-999.0,-999.0,27,-99.99,,---,-99.99,VWS V14.01,2013-11-23 00:07:00,
2013-11-22 16:12:00,66.6,31.6,-100.00,North,-999,-999.0,-999.0,27,-99.99,,---,-99.99,VWS V14.01,2013-11-23 00:12:00,
2013-11-22 16:17:00,66.4,31.4,-100.00,North,-999,-999.0,-999.0,27,-99.99,,---,-99.99,VWS V14.01,2013-11-23 00:17:00,
2013-11-22 16:22:00,66.2,31.3,-100.00,North,-999,-999.0,-999.0,27,-99.99,,---,-99.99,VWS V14.01,2013-11-23 00:22:00,
2013-11-22 16:27:00,66.2,31.3,-100.00,North,-999,-999.0,-999.0,27,-99.99,,---,-99.99,VWS V14.01,2013-11-23 00:27:00,
2013-11-22 16:32:00,66.0,31.1,-100.00,North,-999,-999.0,-999.0,27,-99.99,,---,-99.99,VWS V14.01,2013-11-23 00:32:00,
2013-11-22 16:37:00,65.8,31.0,-100.00,North,-999,-999.0,-999.0,27,-99.99,,---,-99.99,VWS V14.01,2013-11-23 00:37:00,
2013-11-22 16:42:00,65.7,30.8,-100.00,North,-999,-999.0,-999.0,27,-99.99,,---,-99.99,VWS V14.01,2013-11-23 00:42:00,
2013-11-22 16:47:00,65.5,30.6,-100.00,North,-999,-999.0,-999.0,27,-99.99,,---,-99.99,VWS V14.01,2013-11-23 00:47:00,
2013-11-22 16:52:00,65.3,30.5,-100.00,North,-999,-999.0,-999.0,27,-99.99,,---,-99.99,VWS V14.01,2013-11-23 00:52:00,
2013-11-22 16:57:00,65.1,30.3,-100.00,North,-999,-999.0,-999.0,27,-99.99,,---,-99.99,VWS V14.01,2013-11-23 00:57:00,
2013-11-22 17:02:00,64.9,30.2,-100.00,North,-999,-999.0,-999.0,27,-99.99,,---,-99.99,VWS V14.01,2013-11-23 01:02:00,
2013-11-22 17:07:00,64.8,30.0,-100.00,North,-999,-999.0,-999.0,27,-99.99,,---,-99.99,VWS V14.01,2013-11-23 01:07:00,
2013-11-22 17:12:00,64.6,29.9,-100.00,North,-999,-999.0,-999.0,27,-99.99,,---,-99.99,VWS V14.01,2013-11-23 01:12:00,
2013-11-22 17:17:00,64.4,29.7,-100.00,North,-999,-999.0,-999.0,27,-99.99,,---,-99.99,VWS V14.01,2013-11-23 01:17:00,
2013-11-22 17:22:00,64.2,29.6,-100.00,North,-999,-999.0,-999.0,27,-99.99,,---,-99.99,VWS V14.01,2013-11-23 01:22:00,
2013-11-22 17:27:00,64.0,29.4,-100.00,North,-999,-999.0,-999.0,27,-99.99,,---,-99.99,VWS V14.01,2013-11-23 01:27:00,
2013-11-22 17:32:00,64.0,29.4,-100.00,North,-999,-999.0,-999.0,27,-99.99,,---,-99.99,VWS V14.01,2013-11-23 01:32:00,
2013-11-22 17:37:00,63.9,29.3,-100.00,North,-999,-999.0,-999.0,27,-99.99,,---,-99.99,VWS V14.01,2013-11-23 01:37:00,
2013-11-22 17:42:00,63.7,29.1,-100.00,North,-999,-999.0,-999.0,27,-99.99,,---,-99.99,VWS V14.01,2013-11-23 01:42:00,
2013-11-22 17:47:00,63.7,29.1,-100.00,North,-999,-999.0,-999.0,27,-99.99,,---,-99.99,VWS V14.01,2013-11-23 01:47:00,
2013-11-22 17:52:00,63.5,29.0,-100.00,North,-999,-999.0,-999.0,27,-99.99,,---,-99.99,VWS V14.01,2013-11-23 01:52:00,
2013-11-22 17:57:00,63.3,28.8,-100.00,North,-999,-999.0,-999.0,27,-99.99,,---,-99.99,VWS V14.01,2013-11-23 01:57:00,
2013-11-22 18:02:00,63.1,28.6,-100.00,North,-999,-999.0,-999.0,27,-99.99,,---,-99.99,VWS V14.01,2013-11-23 02:02:00,
2013-11-22 18:07:00,63.1,28.6,-100.00,North,-999,-999.0,-999.0,27,-99.99,,---,-99.99,VWS V14.01,2013-11-23 02:07:00,
2013-11-22 18:12:00,63.0,28.5,-100.00,North,-999,-999.0,-999.0,27,-99.99,,---,-99.99,VWS V14.01,2013-11-23 02:12:00,
2013-11-22 18:17:00,62.8,28.3,-100.00,North,-999,-999.0,-999.0,27,-99.99,,---,-99.99,VWS V14.01,2013-11-23 02:17:00,
2013-11-22 18:22:00,62.6,28.2,-100.00,North,-999,-999.0,-999.0,27,-99.99,,---,-99.99,VWS V14.01,2013-11-23 02:22:00,
2013-11-22 18:27:00,62.1,28.6,-100.00,North,-999,-999.0,-999.0,28,-99.99,,---,-99.99,VWS V14.01,2013-11-23 02:27:00,
2013-11-22 18:32:00,61.5,28.1,-100.00,North,-999,-999.0,-999.0,28,-99.99,,---,-99.99,VWS V14.01,2013-11-23 02:32:00,
2013-11-22 18:37:00,61.3,28.8,-100.00,North,-999,-999.0,-999.0,29,-99.99,,---,-99.99,VWS V14.01,2013-11-23 02:37:00,
2013-11-22 18:42:00,61.0,28.5,-100.00,North,-999,-999.0,-999.0,29,-99.99,,---,-99.99,VWS V14.01,2013-11-23 02:42:00,
2013-11-22 18:47:00,60.4,28.9,-100.00,North,-999,-999.0,-999.0,30,-99.99,,---,-99.99,VWS V14.01,2013-11-23 02:47:00,
2013-11-22 18:52:00,60.1,28.6,-100.00,North,-999,-999.0,-999.0,30,-99.99,,---,-99.99,VWS V14.01,2013-11-23 02:52:00,
2013-11-22 18:57:00,59.7,28.3,-100.00,North,-999,-999.0,-999.0,30,-99.99,,---,-99.99,VWS V14.01,2013-11-23 02:57:00,
2013-11-22 19:02:00,59.5,28.1,-100.00,North,-999,-999.0,-999.0,30,-99.99,,---,-99.99,VWS V14.01,2013-11-23 03:02:00,
2013-11-22 19:07:00,59.4,28.7,-100.00,North,-999,-999.0,-999.0,31,-99.99,,---,-99.99,VWS V14.01,2013-11-23 03:07:00,
2013-11-22 19:12:00,59.4,28.7,-100.00,North,-999,-999.0,-999.0,31,-99.99,,---,-99.99,VWS V14.01,2013-11-23 03:12:00,
2013-11-22 19:17:00,59.4,28.7,-100.00,North,-999,-999.0,-999.0,31,-99.99,,---,-99.99,VWS V14.01,2013-11-23 03:17:00,
2013-11-22 19:22:00,59.0,29.2,-100.00,North,-999,-999.0,-999.0,32,-99.99,,---,-99.99,VWS V14.01,2013-11-23 03:22:00,
2013-11-22 19:27:00,58.8,29.0,-100.00,North,-999,-999.0,-999.0,32,-99.99,,---,-99.99,VWS V14.01,2013-11-23 03:27:00,
2013-11-22 19:32:00,58.6,29.6,-100.00,North,-999,-999.0,-999.0,33,-99.99,,---,-99.99,VWS V14.01,2013-11-23 03:32:00,
2013-11-22 19:37:00,58.3,29.3,-100.00,North,-999,-999.0,-999.0,33,-99.99,,---,-99.99,VWS V14.01,2013-11-23 03:37:00,
2013-11-22 19:43:00,58.1,29.2,-100.00,North,-999,-999.0,-999.0,33,-99.99,,---,-99.99,VWS V14.01,2013-11-23 03:43:00,
2013-11-22 19:48:00,58.1,29.2,-100.00,North,-999,-999.0,-999.0,33,-99.99,,---,-99.99,VWS V14.01,2013-11-23 03:48:00,
2013-11-22 19:53:00,57.9,29.7,-100.00,North,-999,-999.0,-999.0,34,-99.99,,---,-99.99,VWS V14.01,2013-11-23 03:53:00,
2013-11-22 19:58:00,57.6,29.4,-100.00,North,-999,-999.0,-999.0,34,-99.99,,---,-99.99,VWS V14.01,2013-11-23 03:58:00,
2013-11-22 20:03:00,57.6,29.4,-100.00,North,-999,-999.0,-999.0,34,-99.99,,---,-99.99,VWS V14.01,2013-11-23 04:03:00,
2013-11-22 20:11:00,57.2,29.8,-100.00,North,-999,-999.0,-999.0,35,-99.99,,---,-99.99,VWS V14.01,2013-11-23 04:11:00,
2013-11-22 20:16:00,57.0,29.7,-100.00,North,-999,-999.0,-999.0,35,-99.99,,---,-99.99,VWS V14.01,2013-11-23 04:16:00,
2013-11-22 20:21:00,56.8,29.5,-100.00,North,-999,-999.0,-999.0,35,-99.99,,---,-99.99,VWS V14.01,2013-11-23 04:21:00,
2013-11-22 20:26:00,56.8,29.5,-100.00,North,-999,-999.0,-999.0,35,-99.99,,---,-99.99,VWS V14.01,2013-11-23 04:26:00,
2013-11-22 20:31:00,56.7,29.3,-100.00,North,-999,-999.0,-999.0,35,-99.99,,---,-99.99,VWS V14.01,2013-11-23 04:31:00,
2013-11-22 20:36:00,56.7,29.3,-100.00,North,-999,-999.0,-999.0,35,-99.99,,---,-99.99,VWS V14.01,2013-11-23 04:36:00,
2013-11-22 20:41:00,56.5,29.2,-100.00,North,-999,-999.0,-999.0,35,-99.99,,---,-99.99,VWS V14.01,2013-11-23 04:41:00,
2013-11-22 20:46:00,56.3,29.0,-100.00,North,-999,-999.0,-999.0,35,-99.99,,---,-99.99,VWS V14.01,2013-11-23 04:46:00,
2013-11-22 20:51:00,56.1,28.9,-100.00,North,-999,-999.0,-999.0,35,-99.99,,---,-99.99,VWS V14.01,2013-11-23 04:51:00,
2013-11-22 20:56:00,55.9,28.7,-100.00,North,-999,-999.0,-999.0,35,-99.99,,---,-99.99,VWS V14.01,2013-11-23 04:56:00,
2013-11-22 21:01:00,55.9,28.7,-100.00,North,-999,-999.0,-999.0,35,-99.99,,---,-99.99,VWS V14.01,2013-11-23 05:01:00,
2013-11-22 21:04:00,55.9,28.7,-100.00,North,-999,-999.0,-999.0,35,-99.99,,---,-99.99,VWS V14.01,2013-11-23 05:04:00,
2013-11-22 21:06:00,55.9,28.7,-100.00,North,-999,-999.0,-999.0,35,-99.99,,---,-99.99,VWS V14.01,2013-11-23 05:06:00,
2013-11-22 21:07:00,55.9,28.7,-100.00,North,-999,-999.0,-999.0,35,-99.99,,---,-99.99,VWS V14.01,2013-11-23 05:07:00,
2013-11-22 21:09:00,55.9,28.7,-100.00,North,-999,-999.0,-999.0,35,-99.99,,---,-99.99,VWS V14.01,2013-11-23 05:09:00,
2013-11-22 21:14:00,55.8,28.5,-100.00,North,-999,-999.0,-999.0,35,-99.99,,---,-99.99,VWS V14.01,2013-11-23 05:14:00,
2013-11-22 21:19:00,55.6,28.4,-100.00,North,-999,-999.0,-999.0,35,-99.99,,---,-99.99,VWS V14.01,2013-11-23 05:19:00,
2013-11-22 21:24:00,55.6,28.4,-100.00,North,-999,-999.0,-999.0,35,-99.99,,---,-99.99,VWS V14.01,2013-11-23 05:24:00,
2013-11-22 21:29:00,55.2,28.8,-100.00,North,-999,-999.0,-999.0,36,-99.99,,---,-99.99,VWS V14.01,2013-11-23 05:29:00,
2013-11-22 21:35:00,55.2,28.8,-100.00,North,-999,-999.0,-999.0,36,-99.99,,---,-99.99,VWS V14.01,2013-11-23 05:35:00,
2013-11-22 21:40:00,55.0,28.6,-100.00,North,-999,-999.0,-999.0,36,-99.99,,---,-99.99,VWS V14.01,2013-11-23 05:40:00,
2013-11-22 21:46:00,54.9,28.4,-100.00,North,-999,-999.0,-999.0,36,-99.99,,---,-99.99,VWS V14.01,2013-11-23 05:46:00,
2013-11-22 21:52:00,54.5,28.1,-100.00,North,-999,-999.0,-999.0,36,-99.99,,---,-99.99,VWS V14.01,2013-11-23 05:52:00,
2013-11-22 21:57:00,54.5,28.1,-100.00,North,-999,-999.0,-999.0,36,-99.99,,---,-99.99,VWS V14.01,2013-11-23 05:57:00,
2013-11-22 22:02:00,54.5,28.1,-100.00,North,-999,-999.0,-999.0,36,-99.99,,---,-99.99,VWS V14.01,2013-11-23 06:02:00,
2013-11-22 22:07:00,54.3,28.0,-100.00,North,-999,-999.0,-999.0,36,-99.99,,---,-99.99,VWS V14.01,2013-11-23 06:07:00,
2013-11-22 22:12:00,54.0,27.6,-100.00,North,-999,-999.0,-999.0,36,-99.99,,---,-99.99,VWS V14.01,2013-11-23 06:12:00,
2013-11-22 22:17:00,53.8,27.5,-100.00,North,-999,-999.0,-999.0,36,-99.99,,---,-99.99,VWS V14.01,2013-11-23 06:17:00,
2013-11-22 22:22:00,53.6,27.3,-100.00,North,-999,-999.0,-999.0,36,-99.99,,---,-99.99,VWS V14.01,2013-11-23 06:22:00,
2013-11-22 22:27:00,53.6,27.3,-100.00,North,-999,-999.0,-999.0,36,-99.99,,---,-99.99,VWS V14.01,2013-11-23 06:27:00,
2013-11-22 22:32:00,53.6,27.3,-100.00,North,-999,-999.0,-999.0,36,-99.99,,---,-99.99,VWS V14.01,2013-11-23 06:32:00,
2013-11-22 22:37:00,53.6,27.3,-100.00,North,-999,-999.0,-999.0,36,-99.99,,---,-99.99,VWS V14.01,2013-11-23 06:37:00,
2013-11-22 22:42:00,53.6,27.3,-100.00,North,-999,-999.0,-999.0,36,-99.99,,---,-99.99,VWS V14.01,2013-11-23 06:42:00,
2013-11-22 22:47:00,54.0,27.6,-100.00,North,-999,-999.0,-999.0,36,-99.99,,---,-99.99,VWS V14.01,2013-11-23 06:47:00,
2013-11-22 22:52:00,54.0,27.6,-100.00,North,-999,-999.0,-999.0,36,-99.99,,---,-99.99,VWS V14.01,2013-11-23 06:52:00,
2013-11-22 22:57:00,54.1,27.8,-100.00,North,-999,-999.0,-999.0,36,-99.99,,---,-99.99,VWS V14.01,2013-11-23 06:57:00,
2013-11-22 23:02:00,54.1,27.8,-100.00,North,-999,-999.0,-999.0,36,-99.99,,---,-99.99,VWS V14.01,2013-11-23 07:02:00,
2013-11-22 23:07:00,54.0,27.6,-100.00,North,-999,-999.0,-999.0,36,-99.99,,---,-99.99,VWS V14.01,2013-11-23 07:07:00,
2013-11-22 23:12:00,54.0,27.6,-100.00,North,-999,-999.0,-999.0,36,-99.99,,---,-99.99,VWS V14.01,2013-11-23 07:12:00,
2013-11-22 23:17:00,53.8,27.5,-100.00,North,-999,-999.0,-999.0,36,-99.99,,---,-99.99,VWS V14.01,2013-11-23 07:17:00,
2013-11-22 23:22:00,53.6,27.3,-100.00,North,-999,-999.0,-999.0,36,-99.99,,---,-99.99,VWS V14.01,2013-11-23 07:22:00,
2013-11-22 23:27:00,53.6,27.3,-100.00,North,-999,-999.0,-999.0,36,-99.99,,---,-99.99,VWS V14.01,2013-11-23 07:27:00,
2013-11-22 23:32:00,53.4,27.8,-100.00,North,-999,-999.0,-999.0,37,-99.99,,---,-99.99,VWS V14.01,2013-11-23 07:32:00,
2013-11-22 23:37:00,53.2,27.7,-100.00,North,-999,-999.0,-999.0,37,-99.99,,---,-99.99,VWS V14.01,2013-11-23 07:37:00,
2013-11-22 23:42:00,53.2,27.7,-100.00,North,-999,-999.0,-999.0,37,-99.99,,---,-99.99,VWS V14.01,2013-11-23 07:42:00,
2013-11-22 23:47:00,53.1,27.5,-100.00,North,-999,-999.0,-999.0,37,-99.99,,---,-99.99,VWS V14.01,2013-11-23 07:47:00,
2013-11-22 23:52:00,52.5,27.0,-100.00,North,-999,-999.0,-999.0,37,-99.99,,---,-99.99,VWS V14.01,2013-11-23 07:52:00,
2013-11-22 23:57:00,52.3,26.9,-100.00,North,-999,-999.0,-999.0,37,-99.99,,---,-99.99,VWS V14.01,2013-11-23 07:57:00,